NV37 weather

Eldorado Substation Heliport
Nelson, Nevada, United States

Public forecast

Using degrees Fahrenheit for public forecast. Weather courtesy of forecast.io.

Closest aviation weather report (METAR) to Eldorado Substation Heliport

Closest report is Henderson Executive Airport, 12.3 nm (22.7 km) NNW. Retrieved 2020/02/17 16:56 UTC (60 minutes ago):

KHND 171656Z 09007KT 10SM CLR 15/M02 A3005 RMK AO2 SLP187 T01501017

Closest aviation forecast (TAF) to Eldorado Substation Heliport

Closest forecast is Henderson Executive Airport, 12.3 nm (22.7 km) NNW. Retrieved 2020/02/17 12:46 UTC (5 hours ago):

TAF KHND 171143Z 1712/1812 17005KT P6SM SCT150 SCT250 FM171700 03010KT P6SM SCT130 SCT250 FM180400 22006KT P6SM SCT250